sensor_id;sensor_type;location;lat;lon;timestamp;pressure;altitude;pressure_sealevel;temperature;humidity
78121;BME280;67585;44.802;10.332;2023-03-24T00:01:41;100990.72;;;15.65;50.07
78121;BME280;67585;44.802;10.332;2023-03-24T00:04:06;100985.97;;;15.52;50.45
78121;BME280;67585;44.802;10.332;2023-03-24T00:06:33;100967.97;;;15.27;51.76
78121;BME280;67585;44.802;10.332;2023-03-24T00:08:59;100998.78;;;15.46;51.95
78121;BME280;67585;44.802;10.332;2023-03-24T00:11:28;100988.84;;;15.66;50.95
78121;BME280;67585;44.802;10.332;2023-03-24T00:13:54;100995.88;;;15.67;51.12
78121;BME280;67585;44.802;10.332;2023-03-24T00:16:22;100971.66;;;15.36;51.64
78121;BME280;67585;44.802;10.332;2023-03-24T00:18:49;100987.41;;;15.39;52.54
78121;BME280;67585;44.802;10.332;2023-03-24T00:21:17;100997.75;;;15.37;52.65
78121;BME280;67585;44.802;10.332;2023-03-24T00:23:46;100995.41;;;15.20;52.81
78121;BME280;67585;44.802;10.332;2023-03-24T00:26:14;100989.16;;;15.14;53.46
78121;BME280;67585;44.802;10.332;2023-03-24T00:28:45;100987.91;;;15.46;52.14
78121;BME280;67585;44.802;10.332;2023-03-24T00:31:11;100991.78;;;15.35;52.57
78121;BME280;67585;44.802;10.332;2023-03-24T00:33:41;100979.41;;;15.13;53.43
78121;BME280;67585;44.802;10.332;2023-03-24T00:36:08;100990.88;;;15.05;53.52
78121;BME280;67585;44.802;10.332;2023-03-24T00:38:38;100979.69;;;15.17;53.51
78121;BME280;67585;44.802;10.332;2023-03-24T00:41:06;100982.16;;;15.08;53.70
78121;BME280;67585;44.802;10.332;2023-03-24T00:43:32;100988.91;;;15.16;53.90
78121;BME280;67585;44.802;10.332;2023-03-24T00:45:59;100987.28;;;15.15;54.04
78121;BME280;67585;44.802;10.332;2023-03-24T00:48:27;100992.53;;;14.96;54.56
78121;BME280;67585;44.802;10.332;2023-03-24T00:50:53;100981.41;;;15.03;54.45
78121;BME280;67585;44.802;10.332;2023-03-24T00:53:19;100992.53;;;14.96;54.67
78121;BME280;67585;44.802;10.332;2023-03-24T00:55:47;100966.53;;;14.90;54.36
78121;BME280;67585;44.802;10.332;2023-03-24T00:58:16;100981.41;;;15.03;54.47
78121;BME280;67585;44.802;10.332;2023-03-24T01:00:48;100987.88;;;15.07;54.31
78121;BME280;67585;44.802;10.332;2023-03-24T01:03:14;100995.81;;;14.88;54.63
78121;BME280;67585;44.802;10.332;2023-03-24T01:05:41;100982.50;;;14.96;54.50
78121;BME280;67585;44.802;10.332;2023-03-24T01:08:14;100990.09;;;14.94;55.22
78121;BME280;67585;44.802;10.332;2023-03-24T01:10:40;100966.56;;;14.80;55.34
78121;BME280;67585;44.802;10.332;2023-03-24T01:13:15;100974.97;;;14.78;55.16
78121;BME280;67585;44.802;10.332;2023-03-24T01:15:41;100994.28;;;14.71;56.02
78121;BME280;67585;44.802;10.332;2023-03-24T01:18:07;100976.91;;;14.72;55.41
78121;BME280;67585;44.802;10.332;2023-03-24T01:20:34;100984.16;;;14.87;56.50
78121;BME280;67585;44.802;10.332;2023-03-24T01:23:02;100990.66;;;14.91;56.74
78121;BME280;67585;44.802;10.332;2023-03-24T01:25:29;100974.75;;;14.69;56.74
78121;BME280;67585;44.802;10.332;2023-03-24T01:27:55;100982.84;;;14.80;56.02
78121;BME280;67585;44.802;10.332;2023-03-24T01:30:23;100972.59;;;14.71;56.03
78121;BME280;67585;44.802;10.332;2023-03-24T01:32:50;100957.97;;;14.67;56.30
78121;BME280;67585;44.802;10.332;2023-03-24T01:35:16;100977.47;;;14.69;58.26
78121;BME280;67585;44.802;10.332;2023-03-24T01:37:42;100977.72;;;14.73;56.95
78121;BME280;67585;44.802;10.332;2023-03-24T01:40:08;100965.31;;;14.51;57.11
78121;BME280;67585;44.802;10.332;2023-03-24T01:42:34;100968.56;;;14.53;57.17
78121;BME280;67585;44.802;10.332;2023-03-24T01:45:37;100969.91;;;14.51;57.05
78121;BME280;67585;44.802;10.332;2023-03-24T01:47:47;100968.03;;;14.57;56.99
78121;BME280;67585;44.802;10.332;2023-03-24T01:50:13;100957.75;;;14.38;57.00
78121;BME280;67585;44.802;10.332;2023-03-24T01:52:39;100958.53;;;14.49;56.51
78121;BME280;67585;44.802;10.332;2023-03-24T01:55:11;100964.81;;;14.44;56.75
78121;BME280;67585;44.802;10.332;2023-03-24T01:57:46;100965.09;;;14.38;57.83
78121;BME280;67585;44.802;10.332;2023-03-24T02:00:16;100962.38;;;14.38;57.54
78121;BME280;67585;44.802;10.332;2023-03-24T02:02:48;100965.31;;;14.46;57.54
78121;BME280;67585;44.802;10.332;2023-03-24T02:05:20;100955.88;;;14.33;57.51
78121;BME280;67585;44.802;10.332;2023-03-24T02:10:30;100956.75;;;14.14;57.74
78121;BME280;67585;44.802;10.332;2023-03-24T02:12:56;100975.09;;;14.42;58.14
78121;BME280;67585;44.802;10.332;2023-03-24T02:15:26;100965.91;;;14.38;57.91
78121;BME280;67585;44.802;10.332;2023-03-24T02:18:05;100961.59;;;14.22;57.83
78121;BME280;67585;44.802;10.332;2023-03-24T02:26:08;100958.06;;;14.21;58.11
78121;BME280;67585;44.802;10.332;2023-03-24T02:28:59;100950.22;;;14.15;59.12
78121;BME280;67585;44.802;10.332;2023-03-24T02:32:08;100957.31;;;13.85;59.26
78121;BME280;67585;44.802;10.332;2023-03-24T02:37:47;100940.22;;;14.20;58.19
78121;BME280;67585;44.802;10.332;2023-03-24T02:40:21;100941.00;;;14.21;58.63
78121;BME280;67585;44.802;10.332;2023-03-24T02:45:36;100939.41;;;14.09;58.80
78121;BME280;67585;44.802;10.332;2023-03-24T02:53:19;100933.19;;;14.04;59.55
78121;BME280;67585;44.802;10.332;2023-03-24T02:56:15;100930.53;;;13.94;60.03
78121;BME280;67585;44.802;10.332;2023-03-24T03:01:19;100897.19;;;13.88;58.94
78121;BME280;67585;44.802;10.332;2023-03-24T03:03:58;100922.38;;;14.04;59.39
78121;BME280;67585;44.802;10.332;2023-03-24T03:06:32;100935.66;;;13.90;59.63
78121;BME280;67585;44.802;10.332;2023-03-24T03:09:04;100928.34;;;13.96;60.21
78121;BME280;67585;44.802;10.332;2023-03-24T03:11:31;100927.78;;;14.09;59.58
78121;BME280;67585;44.802;10.332;2023-03-24T03:14:03;100935.66;;;13.90;59.86
78121;BME280;67585;44.802;10.332;2023-03-24T03:16:34;100912.63;;;13.93;59.63
78121;BME280;67585;44.802;10.332;2023-03-24T03:19:26;100918.28;;;14.06;59.22
78121;BME280;67585;44.802;10.332;2023-03-24T03:21:53;100922.41;;;13.94;59.45
78121;BME280;67585;44.802;10.332;2023-03-24T03:24:25;100905.00;;;14.05;59.26
78121;BME280;67585;44.802;10.332;2023-03-24T03:26:56;100919.66;;;13.99;59.52
78121;BME280;67585;44.802;10.332;2023-03-24T03:29:25;100896.66;;;13.81;60.36
78121;BME280;67585;44.802;10.332;2023-03-24T03:31:56;100912.66;;;13.82;60.31
78121;BME280;67585;44.802;10.332;2023-03-24T03:37:04;100912.41;;;13.79;60.14
78121;BME280;67585;44.802;10.332;2023-03-24T03:39:34;100912.63;;;13.87;59.98
78121;BME280;67585;44.802;10.332;2023-03-24T03:42:04;100895.00;;;14.10;59.92
78121;BME280;67585;44.802;10.332;2023-03-24T03:44:30;100904.47;;;14.13;59.82
78121;BME280;67585;44.802;10.332;2023-03-24T03:46:56;100895.63;;;13.72;61.11
78121;BME280;67585;44.802;10.332;2023-03-24T03:49:21;100909.41;;;13.96;60.80
78121;BME280;67585;44.802;10.332;2023-03-24T03:51:47;100896.09;;;14.04;59.97
78121;BME280;67585;44.802;10.332;2023-03-24T03:54:15;100900.97;;;13.97;60.02
78121;BME280;67585;44.802;10.332;2023-03-24T03:56:41;100899.06;;;14.08;60.46
78121;BME280;67585;44.802;10.332;2023-03-24T03:59:07;100899.81;;;14.24;59.34
78121;BME280;67585;44.802;10.332;2023-03-24T04:01:35;100888.75;;;14.10;60.04
78121;BME280;67585;44.802;10.332;2023-03-24T04:07:22;100890.41;;;14.06;60.96
78121;BME280;67585;44.802;10.332;2023-03-24T04:12:26;100889.06;;;14.03;60.33
78121;BME280;67585;44.802;10.332;2023-03-24T04:24:18;100881.00;;;13.62;61.79
78121;BME280;67585;44.802;10.332;2023-03-24T04:26:59;100902.38;;;13.84;61.59
78121;BME280;67585;44.802;10.332;2023-03-24T04:32:55;100859.88;;;13.70;61.99
78121;BME280;67585;44.802;10.332;2023-03-24T04:35:05;100887.25;;;13.58;61.94
78121;BME280;67585;44.802;10.332;2023-03-24T04:37:33;100894.22;;;13.13;63.88
78121;BME280;67585;44.802;10.332;2023-03-24T04:40:08;100908.88;;;13.37;63.53
78121;BME280;67585;44.802;10.332;2023-03-24T04:43:02;100899.13;;;13.82;61.99
78121;BME280;67585;44.802;10.332;2023-03-24T04:45:31;100905.63;;;13.66;61.79
78121;BME280;67585;44.802;10.332;2023-03-24T04:48:02;100916.97;;;13.83;61.23
78121;BME280;67585;44.802;10.332;2023-03-24T04:50:39;100902.66;;;13.73;62.04
78121;BME280;67585;44.802;10.332;2023-03-24T04:53:06;100888.56;;;13.76;61.19
78121;BME280;67585;44.802;10.332;2023-03-24T04:58:39;100909.38;;;13.85;61.42
78121;BME280;67585;44.802;10.332;2023-03-24T05:01:04;100909.44;;;13.39;62.80
78121;BME280;67585;44.802;10.332;2023-03-24T05:03:33;100912.41;;;13.63;62.85
78121;BME280;67585;44.802;10.332;2023-03-24T05:06:02;100894.00;;;13.65;62.26
78121;BME280;67585;44.802;10.332;2023-03-24T05:08:30;100910.50;;;13.49;62.45
78121;BME280;67585;44.802;10.332;2023-03-24T05:10:55;100915.06;;;13.94;61.71
78121;BME280;67585;44.802;10.332;2023-03-24T05:13:21;100906.19;;;13.58;61.81
78121;BME280;67585;44.802;10.332;2023-03-24T05:15:46;100895.06;;;13.54;62.29
78121;BME280;67585;44.802;10.332;2023-03-24T05:18:11;100901.31;;;13.29;63.06
78121;BME280;67585;44.802;10.332;2023-03-24T05:20:37;100898.59;;;13.29;63.06
78121;BME280;67585;44.802;10.332;2023-03-24T05:23:02;100908.63;;;13.39;63.17
78121;BME280;67585;44.802;10.332;2023-03-24T05:25:28;100922.44;;;13.53;63.11
78121;BME280;67585;44.802;10.332;2023-03-24T05:27:53;100921.34;;;13.54;62.86
78121;BME280;67585;44.802;10.332;2023-03-24T05:30:19;100927.84;;;13.42;63.04
78121;BME280;67585;44.802;10.332;2023-03-24T05:32:44;100929.16;;;13.35;63.27
78121;BME280;67585;44.802;10.332;2023-03-24T05:35:10;100919.72;;;13.68;61.20
78121;BME280;67585;44.802;10.332;2023-03-24T05:37:36;100929.19;;;13.65;61.63
78121;BME280;67585;44.802;10.332;2023-03-24T05:40:01;100931.88;;;13.71;61.68
78121;BME280;67585;44.802;10.332;2023-03-24T05:42:27;100904.56;;;13.52;61.18
78121;BME280;67585;44.802;10.332;2023-03-24T05:44:52;100920.78;;;13.77;60.90
78121;BME280;67585;44.802;10.332;2023-03-24T05:47:18;100922.44;;;13.48;60.63
78121;BME280;67585;44.802;10.332;2023-03-24T05:49:45;100879.09;;;13.22;60.91
78121;BME280;67585;44.802;10.332;2023-03-24T05:52:11;100928.38;;;13.44;60.51
78121;BME280;67585;44.802;10.332;2023-03-24T05:54:39;100908.03;;;13.26;59.77
78121;BME280;67585;44.802;10.332;2023-03-24T05:57:05;100933.00;;;13.59;59.41
78121;BME280;67585;44.802;10.332;2023-03-24T05:59:33;100940.28;;;13.49;57.79
78121;BME280;67585;44.802;10.332;2023-03-24T06:01:59;100942.97;;;13.64;57.63
78121;BME280;67585;44.802;10.332;2023-03-24T06:04:25;100942.19;;;13.58;57.55
78121;BME280;67585;44.802;10.332;2023-03-24T06:06:57;100921.09;;;13.45;58.31
78121;BME280;67585;44.802;10.332;2023-03-24T06:09:26;100902.13;;;13.45;57.13
78121;BME280;67585;44.802;10.332;2023-03-24T06:12:00;100919.69;;;13.78;57.24
78121;BME280;67585;44.802;10.332;2023-03-24T06:14:26;100921.56;;;13.98;56.64
78121;BME280;67585;44.802;10.332;2023-03-24T06:16:51;100912.91;;;13.96;58.66
78121;BME280;67585;44.802;10.332;2023-03-24T06:19:17;100920.75;;;14.08;56.67
78121;BME280;67585;44.802;10.332;2023-03-24T06:21:47;100923.88;;;14.41;56.32
78121;BME280;67585;44.802;10.332;2023-03-24T06:24:15;100927.66;;;14.45;55.95
78121;BME280;67585;44.802;10.332;2023-03-24T06:26:42;100914.94;;;15.00;53.91
78121;BME280;67585;44.802;10.332;2023-03-24T06:29:09;100927.38;;;15.06;53.47
78121;BME280;67585;44.802;10.332;2023-03-24T06:31:35;100905.16;;;14.55;54.95
78121;BME280;67585;44.802;10.332;2023-03-24T06:34:02;100914.09;;;14.45;55.70
78121;BME280;67585;44.802;10.332;2023-03-24T06:36:28;100932.44;;;14.68;55.22
78121;BME280;67585;44.802;10.332;2023-03-24T06:38:53;100893.69;;;15.12;53.68
78121;BME280;67585;44.802;10.332;2023-03-24T06:41:19;100907.94;;;15.28;53.09
78121;BME280;67585;44.802;10.332;2023-03-24T06:43:44;100905.72;;;15.70;52.32
78121;BME280;67585;44.802;10.332;2023-03-24T06:46:10;100923.81;;;16.09;51.47
78121;BME280;67585;44.802;10.332;2023-03-24T06:48:35;100872.47;;;16.07;51.15
78121;BME280;67585;44.802;10.332;2023-03-24T06:51:02;100893.22;;;16.46;50.57
78121;BME280;67585;44.802;10.332;2023-03-24T06:53:28;100895.44;;;16.63;50.32
78121;BME280;67585;44.802;10.332;2023-03-24T06:55:53;100893.50;;;16.87;49.77
78121;BME280;67585;44.802;10.332;2023-03-24T06:58:19;100919.81;;;16.92;50.29
78121;BME280;67585;44.802;10.332;2023-03-24T07:00:44;100914.47;;;16.63;51.82
78121;BME280;67585;44.802;10.332;2023-03-24T07:03:11;100934.84;;;16.65;51.94
78121;BME280;67585;44.802;10.332;2023-03-24T07:05:43;100905.41;;;16.49;52.09
78121;BME280;67585;44.802;10.332;2023-03-24T07:08:09;100934.53;;;16.67;52.61
78121;BME280;67585;44.802;10.332;2023-03-24T07:10:37;100929.13;;;16.43;52.95
78121;BME280;67585;44.802;10.332;2023-03-24T07:13:04;100931.50;;;16.50;53.31
78121;BME280;67585;44.802;10.332;2023-03-24T07:15:30;100932.28;;;16.50;52.65
78121;BME280;67585;44.802;10.332;2023-03-24T07:17:56;100927.31;;;16.33;53.74
78121;BME280;67585;44.802;10.332;2023-03-24T07:20:21;100917.22;;;16.39;50.65
78121;BME280;67585;44.802;10.332;2023-03-24T07:22:46;100927.56;;;16.61;49.77
78121;BME280;67585;44.802;10.332;2023-03-24T07:25:12;100939.75;;;16.63;49.40
78121;BME280;67585;44.802;10.332;2023-03-24T07:27:44;100929.78;;;16.78;49.13
78121;BME280;67585;44.802;10.332;2023-03-24T07:30:10;100935.63;;;16.90;48.28
78121;BME280;67585;44.802;10.332;2023-03-24T07:32:35;100943.03;;;16.84;47.76
78121;BME280;67585;44.802;10.332;2023-03-24T07:35:07;100933.97;;;16.70;46.97
78121;BME280;67585;44.802;10.332;2023-03-24T07:37:35;100905.13;;;16.69;47.37
78121;BME280;67585;44.802;10.332;2023-03-24T07:40:01;100949.97;;;16.96;47.33
78121;BME280;67585;44.802;10.332;2023-03-24T07:42:29;100950.19;;;16.99;46.84
78121;BME280;67585;44.802;10.332;2023-03-24T07:44:55;100945.56;;;17.00;47.82
78121;BME280;67585;44.802;10.332;2023-03-24T07:47:20;100949.38;;;16.99;50.85
78121;BME280;67585;44.802;10.332;2023-03-24T07:49:46;100955.84;;;16.84;49.26
78121;BME280;67585;44.802;10.332;2023-03-24T07:52:11;100919.25;;;16.71;48.13
78121;BME280;67585;44.802;10.332;2023-03-24T07:54:37;100946.53;;;17.09;48.43
78121;BME280;67585;44.802;10.332;2023-03-24T07:57:02;100933.06;;;16.80;50.47
78121;BME280;67585;44.802;10.332;2023-03-24T07:59:28;100958.56;;;16.84;51.92
78121;BME280;67585;44.802;10.332;2023-03-24T08:01:53;100951.16;;;16.90;51.71
78121;BME280;67585;44.802;10.332;2023-03-24T08:04:19;100964.88;;;16.79;52.81
78121;BME280;67585;44.802;10.332;2023-03-24T08:06:44;100958.91;;;16.77;52.38
78121;BME280;67585;44.802;10.332;2023-03-24T08:09:10;100955.22;;;16.68;52.55
78121;BME280;67585;44.802;10.332;2023-03-24T08:11:36;100983.28;;;16.63;53.37
78121;BME280;67585;44.802;10.332;2023-03-24T08:14:02;100967.91;;;16.54;53.15
78121;BME280;67585;44.802;10.332;2023-03-24T08:16:28;100952.91;;;16.80;53.21
78121;BME280;67585;44.802;10.332;2023-03-24T08:18:53;100958.56;;;16.36;54.47
78121;BME280;67585;44.802;10.332;2023-03-24T08:21:22;100978.47;;;16.07;55.63
78121;BME280;67585;44.802;10.332;2023-03-24T08:23:48;100978.31;;;16.47;50.78
78121;BME280;67585;44.802;10.332;2023-03-24T08:26:13;100955.09;;;16.54;47.74
78121;BME280;67585;44.802;10.332;2023-03-24T08:28:39;100975.22;;;16.77;46.49
78121;BME280;67585;44.802;10.332;2023-03-24T08:31:05;100951.16;;;16.65;46.98
78121;BME280;67585;44.802;10.332;2023-03-24T08:33:31;100974.69;;;16.99;46.50
78121;BME280;67585;44.802;10.332;2023-03-24T08:35:56;100977.78;;;16.93;47.20
78121;BME280;67585;44.802;10.332;2023-03-24T08:38:23;100963.38;;;16.92;46.80
78121;BME280;67585;44.802;10.332;2023-03-24T08:40:58;100967.97;;;16.92;47.13
78121;BME280;67585;44.802;10.332;2023-03-24T08:43:27;100973.72;;;16.90;47.54
78121;BME280;67585;44.802;10.332;2023-03-24T08:45:57;100956.81;;;16.93;48.53
78121;BME280;67585;44.802;10.332;2023-03-24T08:48:23;100959.66;;;16.83;49.24
78121;BME280;67585;44.802;10.332;2023-03-24T08:50:48;100952.56;;;16.87;49.41
78121;BME280;67585;44.802;10.332;2023-03-24T08:53:14;100946.28;;;16.86;48.94
78121;BME280;67585;44.802;10.332;2023-03-24T08:55:40;100965.69;;;16.99;48.70
78121;BME280;67585;44.802;10.332;2023-03-24T08:58:33;100965.78;;;16.94;48.46
78121;BME280;67585;44.802;10.332;2023-03-24T09:00:59;100941.88;;;16.91;47.03
78121;BME280;67585;44.802;10.332;2023-03-24T09:03:24;100933.91;;;16.94;46.92
78121;BME280;67585;44.802;10.332;2023-03-24T09:05:54;100954.38;;;17.11;46.85
78121;BME280;67585;44.802;10.332;2023-03-24T09:08:21;100936.72;;;17.08;46.43
78121;BME280;67585;44.802;10.332;2023-03-24T09:10:47;100947.00;;;17.11;46.10
78121;BME280;67585;44.802;10.332;2023-03-24T09:13:14;100925.13;;;17.02;45.52
78121;BME280;67585;44.802;10.332;2023-03-24T09:15:45;100947.75;;;17.36;45.42
78121;BME280;67585;44.802;10.332;2023-03-24T09:18:10;100916.63;;;17.23;44.42
78121;BME280;67585;44.802;10.332;2023-03-24T09:20:35;100933.75;;;17.42;44.36
78121;BME280;67585;44.802;10.332;2023-03-24T09:23:01;100953.75;;;17.51;44.16
78121;BME280;67585;44.802;10.332;2023-03-24T09:25:26;100937.31;;;17.57;44.13
78121;BME280;67585;44.802;10.332;2023-03-24T09:27:52;100951.25;;;17.88;43.48
78121;BME280;67585;44.802;10.332;2023-03-24T09:30:17;100959.09;;;18.36;42.36
78121;BME280;67585;44.802;10.332;2023-03-24T09:32:44;100955.06;;;18.47;41.52
78121;BME280;67585;44.802;10.332;2023-03-24T09:35:12;100950.22;;;18.30;40.59
78121;BME280;67585;44.802;10.332;2023-03-24T09:37:38;100957.25;;;18.59;40.29
78121;BME280;67585;44.802;10.332;2023-03-24T09:40:05;100967.19;;;18.55;41.45
78121;BME280;67585;44.802;10.332;2023-03-24T09:42:36;100935.16;;;18.47;40.15
78121;BME280;67585;44.802;10.332;2023-03-24T09:45:14;100929.16;;;18.58;39.74
78121;BME280;67585;44.802;10.332;2023-03-24T09:47:58;100940.09;;;19.23;39.08
78121;BME280;67585;44.802;10.332;2023-03-24T09:50:33;100932.44;;;19.11;38.95
78121;BME280;67585;44.802;10.332;2023-03-24T09:53:09;100906.97;;;19.24;37.80
78121;BME280;67585;44.802;10.332;2023-03-24T09:55:40;100940.16;;;20.08;37.16
78121;BME280;67585;44.802;10.332;2023-03-24T09:58:10;100946.06;;;20.41;36.92
78121;BME280;67585;44.802;10.332;2023-03-24T10:00:36;100936.34;;;20.26;36.25
78121;BME280;67585;44.802;10.332;2023-03-24T10:05:49;100910.44;;;19.83;36.37
78121;BME280;67585;44.802;10.332;2023-03-24T10:14:17;100915.56;;;20.56;35.03
78121;BME280;67585;44.802;10.332;2023-03-24T10:17:04;100915.75;;;20.95;34.73
78121;BME280;67585;44.802;10.332;2023-03-24T10:19:57;100930.59;;;21.02;33.90
78121;BME280;67585;44.802;10.332;2023-03-24T10:25:03;100918.81;;;20.76;35.27
78121;BME280;67585;44.802;10.332;2023-03-24T10:27:51;100934.91;;;20.86;35.07
78121;BME280;67585;44.802;10.332;2023-03-24T10:30:40;100924.94;;;20.81;34.92
78121;BME280;67585;44.802;10.332;2023-03-24T10:33:09;100905.28;;;20.97;34.36
78121;BME280;67585;44.802;10.332;2023-03-24T10:35:39;100917.84;;;20.98;34.08
78121;BME280;67585;44.802;10.332;2023-03-24T10:38:18;100912.84;;;21.17;34.18
78121;BME280;67585;44.802;10.332;2023-03-24T10:40:45;100912.19;;;21.55;32.94
78121;BME280;67585;44.802;10.332;2023-03-24T10:43:12;100906.88;;;21.59;33.52
78121;BME280;67585;44.802;10.332;2023-03-24T10:45:41;100882.31;;;21.62;33.18
78121;BME280;67585;44.802;10.332;2023-03-24T10:48:09;100889.63;;;21.58;33.62
78121;BME280;67585;44.802;10.332;2023-03-24T10:50:41;100883.78;;;21.68;33.01
78121;BME280;67585;44.802;10.332;2023-03-24T10:53:18;100877.91;;;21.79;33.41
78121;BME280;67585;44.802;10.332;2023-03-24T10:55:44;100888.53;;;21.89;33.75
78121;BME280;67585;44.802;10.332;2023-03-24T10:58:40;100887.59;;;21.76;33.52
78121;BME280;67585;44.802;10.332;2023-03-24T11:01:24;100882.66;;;21.61;33.54
78121;BME280;67585;44.802;10.332;2023-03-24T11:03:51;100876.44;;;22.19;32.43
78121;BME280;67585;44.802;10.332;2023-03-24T11:06:22;100858.94;;;21.65;32.74
78121;BME280;67585;44.802;10.332;2023-03-24T11:09:09;100859.31;;;21.93;32.98
78121;BME280;67585;44.802;10.332;2023-03-24T11:11:35;100869.44;;;22.01;32.45
78121;BME280;67585;44.802;10.332;2023-03-24T11:14:02;100859.38;;;22.14;32.27
78121;BME280;67585;44.802;10.332;2023-03-24T11:16:35;100875.97;;;21.79;32.85
78121;BME280;67585;44.802;10.332;2023-03-24T11:21:30;100859.97;;;21.34;34.78
78121;BME280;67585;44.802;10.332;2023-03-24T11:24:01;100858.31;;;21.59;33.96
78121;BME280;67585;44.802;10.332;2023-03-24T11:26:34;100853.03;;;21.45;33.58
78121;BME280;67585;44.802;10.332;2023-03-24T11:29:03;100852.34;;;21.66;33.94
78121;BME280;67585;44.802;10.332;2023-03-24T11:31:35;100846.69;;;22.01;33.32
78121;BME280;67585;44.802;10.332;2023-03-24T11:34:25;100840.91;;;21.93;32.76
78121;BME280;67585;44.802;10.332;2023-03-24T11:36:56;100839.16;;;21.89;33.33
78121;BME280;67585;44.802;10.332;2023-03-24T11:39:27;100829.13;;;21.93;32.87
78121;BME280;67585;44.802;10.332;2023-03-24T11:47:09;100835.34;;;22.61;30.86
78121;BME280;67585;44.802;10.332;2023-03-24T11:49:41;100822.22;;;22.67;30.78
78121;BME280;67585;44.802;10.332;2023-03-24T11:52:16;100806.41;;;22.22;31.00
78121;BME280;67585;44.802;10.332;2023-03-24T11:54:44;100823.16;;;22.50;30.34
78121;BME280;67585;44.802;10.332;2023-03-24T11:57:17;100820.69;;;22.36;29.83
78121;BME280;67585;44.802;10.332;2023-03-24T12:00:26;100812.06;;;22.17;30.17
78121;BME280;67585;44.802;10.332;2023-03-24T12:11:20;100805.06;;;22.49;30.54
78121;BME280;67585;44.802;10.332;2023-03-24T12:13:51;100804.38;;;22.73;30.72
78121;BME280;67585;44.802;10.332;2023-03-24T12:16:36;100783.47;;;22.18;30.35
78121;BME280;67585;44.802;10.332;2023-03-24T12:21:53;100769.31;;;22.58;29.37
78121;BME280;67585;44.802;10.332;2023-03-24T12:27:52;100766.00;;;22.65;29.61
78121;BME280;67585;44.802;10.332;2023-03-24T12:30:44;100771.13;;;22.54;29.44
78121;BME280;67585;44.802;10.332;2023-03-24T12:33:35;100762.28;;;22.48;29.32
78121;BME280;67585;44.802;10.332;2023-03-24T12:36:24;100752.38;;;22.56;29.06
78121;BME280;67585;44.802;10.332;2023-03-24T12:47:17;100745.19;;;22.64;30.03
78121;BME280;67585;44.802;10.332;2023-03-24T13:00:59;100728.47;;;22.56;29.33
78121;BME280;67585;44.802;10.332;2023-03-24T13:03:34;100665.75;;;21.83;30.25
78121;BME280;67585;44.802;10.332;2023-03-24T13:06:12;100724.94;;;22.14;29.74
78121;BME280;67585;44.802;10.332;2023-03-24T13:08:39;100719.22;;;21.98;30.59
78121;BME280;67585;44.802;10.332;2023-03-24T13:11:11;100713.06;;;21.80;30.50
78121;BME280;67585;44.802;10.332;2023-03-24T13:13:42;100720.47;;;21.80;30.54
78121;BME280;67585;44.802;10.332;2023-03-24T13:16:22;100716.41;;;21.86;30.94
78121;BME280;67585;44.802;10.332;2023-03-24T13:18:54;100719.63;;;21.88;30.50
78121;BME280;67585;44.802;10.332;2023-03-24T13:21:22;100693.31;;;21.87;30.58
78121;BME280;67585;44.802;10.332;2023-03-24T13:24:06;100710.78;;;21.82;30.08
78121;BME280;67585;44.802;10.332;2023-03-24T13:34:55;100690.78;;;21.52;30.41
78121;BME280;67585;44.802;10.332;2023-03-24T13:37:39;100683.00;;;21.63;30.45
78121;BME280;67585;44.802;10.332;2023-03-24T13:40:19;100668.38;;;21.50;29.87
78121;BME280;67585;44.802;10.332;2023-03-24T13:42:59;100668.16;;;21.64;29.83
78121;BME280;67585;44.802;10.332;2023-03-24T13:45:43;100662.91;;;21.50;29.83
78121;BME280;67585;44.802;10.332;2023-03-24T13:50:40;100680.06;;;21.68;30.26
78121;BME280;67585;44.802;10.332;2023-03-24T13:53:13;100681.88;;;21.64;29.28
78121;BME280;67585;44.802;10.332;2023-03-24T13:55:43;100667.84;;;21.65;30.15
78121;BME280;67585;44.802;10.332;2023-03-24T13:58:18;100666.16;;;21.73;30.20
78121;BME280;67585;44.802;10.332;2023-03-24T14:03:43;100650.22;;;21.37;29.90
78121;BME280;67585;44.802;10.332;2023-03-24T14:12:06;100627.88;;;21.26;29.33
78121;BME280;67585;44.802;10.332;2023-03-24T14:17:29;100641.50;;;21.43;30.28
78121;BME280;67585;44.802;10.332;2023-03-24T14:22:29;100649.97;;;21.21;30.04
78121;BME280;67585;44.802;10.332;2023-03-24T14:25:02;100630.47;;;21.22;30.24
78121;BME280;67585;44.802;10.332;2023-03-24T14:27:37;100647.75;;;21.14;31.12
78121;BME280;67585;44.802;10.332;2023-03-24T14:32:51;100642.44;;;21.09;30.32
78121;BME280;67585;44.802;10.332;2023-03-24T14:35:38;100642.09;;;21.19;30.07
78121;BME280;67585;44.802;10.332;2023-03-24T14:40:48;100628.66;;;20.97;29.66
78121;BME280;67585;44.802;10.332;2023-03-24T14:43:22;100636.78;;;21.14;29.97
78121;BME280;67585;44.802;10.332;2023-03-24T14:48:43;100628.41;;;21.19;30.03
78121;BME280;67585;44.802;10.332;2023-03-24T14:51:40;100620.22;;;21.10;30.61
78121;BME280;67585;44.802;10.332;2023-03-24T14:54:21;100623.47;;;21.04;30.32
78121;BME280;67585;44.802;10.332;2023-03-24T14:56:51;100622.44;;;21.17;30.47
78121;BME280;67585;44.802;10.332;2023-03-24T14:59:26;100626.97;;;21.13;30.06
78121;BME280;67585;44.802;10.332;2023-03-24T15:02:00;100614.94;;;21.05;31.00
78121;BME280;67585;44.802;10.332;2023-03-24T15:04:27;100600.78;;;20.95;30.62
78121;BME280;67585;44.802;10.332;2023-03-24T15:06:53;100609.19;;;20.89;31.30
78121;BME280;67585;44.802;10.332;2023-03-24T15:09:18;100612.47;;;20.83;31.56